createdAt,value
2019-02-19T00:00:00.367Z,98368.32
2019-02-19T00:06:26.188Z,98366.89
2019-02-19T00:15:57.061Z,98368.06
2019-02-19T00:22:20.862Z,98372.88
2019-02-19T00:28:59.811Z,98373.77
2019-02-19T00:35:23.617Z,98364.01
2019-02-19T00:41:51.227Z,98363.33
2019-02-19T00:48:30.402Z,98361.01
2019-02-19T00:54:58.910Z,98361.01
2019-02-19T01:01:25.993Z,98362.55
2019-02-19T01:07:16.198Z,98362.20
2019-02-19T01:17:31.639Z,98356.02
2019-02-19T01:24:12.611Z,98370.87
2019-02-19T01:30:41.464Z,98371.02
2019-02-19T01:37:09.301Z,98368.91
2019-02-19T01:43:46.233Z,98364.89
2019-02-19T01:50:13.850Z,98354.02
2019-02-19T01:56:40.901Z,98352.14
2019-02-19T02:03:06.718Z,98356.69
2019-02-19T02:09:08.880Z,98345.79
2019-02-19T02:19:13.049Z,98344.24
2019-02-19T02:25:42.144Z,98339.08
2019-02-19T02:32:09.674Z,98335.31
2019-02-19T02:38:52.969Z,98337.44
2019-02-19T02:45:16.516Z,98330.73
2019-02-19T02:51:42.369Z,98335.31
2019-02-19T02:58:15.185Z,98332.73
2019-02-19T03:04:52.419Z,98330.83
2019-02-19T03:10:43.891Z,98335.54
2019-02-19T03:20:48.884Z,98328.20
2019-02-19T03:26:39.353Z,98326.09
2019-02-19T03:32:54.758Z,98329.28
2019-02-19T03:39:36.043Z,98329.49
2019-02-19T03:46:01.863Z,98331.86
2019-02-19T03:52:27.465Z,98342.71
2019-02-19T03:59:06.417Z,98339.91
2019-02-19T04:05:33.460Z,98343.42
2019-02-19T04:11:59.283Z,98349.72
2019-02-19T04:22:12.120Z,98345.02
2019-02-19T04:28:37.970Z,98354.14
2019-02-19T04:35:14.871Z,98356.72
2019-02-19T04:41:40.722Z,98352.50
2019-02-19T04:48:04.537Z,98363.54
2019-02-19T04:54:44.684Z,98374.06
2019-02-19T05:01:10.150Z,98374.42
2019-02-19T05:07:40.359Z,98368.33
2019-02-19T05:14:05.947Z,98363.37
2019-02-19T05:24:07.129Z,98363.27
2019-02-19T05:30:44.062Z,98363.00
2019-02-19T05:37:09.885Z,98354.33
2019-02-19T05:43:41.762Z,98377.76
2019-02-19T05:50:19.703Z,98377.35
2019-02-19T05:56:49.273Z,98381.78
2019-02-19T06:03:15.382Z,98373.93
2019-02-19T06:09:17.969Z,98369.53
2019-02-19T06:15:54.895Z,98376.44
2019-02-19T06:26:07.987Z,98390.05
2019-02-19T06:32:35.606Z,98405.52
2019-02-19T06:39:02.642Z,98425.91
2019-02-19T06:49:28.843Z,98443.61
2019-02-19T06:56:05.771Z,98450.01
2019-02-19T07:02:54.821Z,98468.39
2019-02-19T07:08:44.066Z,98483.97
2019-02-19T07:15:20.979Z,98504.59
2019-02-19T07:21:44.777Z,98509.94
2019-02-19T07:27:58.711Z,98516.84
2019-02-19T07:34:26.551Z,98525.36
2019-02-19T07:41:05.502Z,98525.92
2019-02-19T07:47:31.040Z,98532.20
2019-02-19T07:53:56.904Z,98545.78
2019-02-19T08:00:36.094Z,98541.48
2019-02-19T08:06:59.649Z,98547.66
2019-02-19T08:13:25.502Z,98558.30
2019-02-19T08:19:52.544Z,98563.20
2019-02-19T08:30:01.262Z,98569.40
2019-02-19T08:36:40.523Z,98570.98
2019-02-19T08:43:06.343Z,98568.69
2019-02-19T08:49:33.961Z,98572.73
2019-02-19T08:56:12.916Z,98572.75
2019-02-19T09:02:41.635Z,98564.80
2019-02-19T09:08:45.367Z,98577.27
2019-02-19T09:15:12.417Z,98584.92
2019-02-19T09:21:53.054Z,98593.25
2019-02-19T09:31:56.359Z,98584.20
2019-02-19T09:38:25.939Z,98600.28
2019-02-19T09:44:40.718Z,98612.83
2019-02-19T09:51:17.627Z,98611.78
2019-02-19T09:57:43.479Z,98619.76
2019-02-19T10:04:10.511Z,98621.98
2019-02-19T10:10:38.041Z,98619.92
2019-02-19T10:17:17.000Z,98634.13
2019-02-19T10:23:43.121Z,98634.79
2019-02-19T10:33:46.091Z,98639.63
2019-02-19T10:40:15.761Z,98652.44
2019-02-19T10:46:18.542Z,98667.47
2019-02-19T10:52:46.136Z,98668.70
2019-02-19T10:59:11.983Z,98664.41
2019-02-19T11:05:40.703Z,98665.86
2019-02-19T11:12:19.666Z,98659.00
2019-02-19T11:18:45.827Z,98654.78
2019-02-19T11:25:13.660Z,98640.98
2019-02-19T11:34:41.291Z,98628.42
2019-02-19T11:41:07.103Z,98631.30
2019-02-19T11:47:46.749Z,98627.49
2019-02-19T11:54:10.859Z,98617.81
2019-02-19T12:00:42.742Z,98613.30
2019-02-19T12:07:22.699Z,98606.66
2019-02-19T12:13:48.524Z,98601.31
2019-02-19T12:20:16.360Z,98600.39
2019-02-19T12:26:18.951Z,98594.59
2019-02-19T12:36:31.751Z,98589.76
2019-02-19T12:42:57.604Z,98587.16
2019-02-19T12:49:30.423Z,98572.13
2019-02-19T12:55:56.550Z,98579.38
2019-02-19T13:02:37.523Z,98565.86
2019-02-19T13:09:03.120Z,98570.25
2019-02-19T13:15:29.789Z,98567.02
2019-02-19T13:22:10.139Z,98566.70
2019-02-19T13:28:34.940Z,98568.66
2019-02-19T13:38:49.821Z,98570.78
2019-02-19T13:45:16.856Z,98572.27
2019-02-19T13:51:42.682Z,98579.10
2019-02-19T13:58:19.612Z,98580.27
2019-02-19T14:04:47.158Z,98581.06
2019-02-19T14:11:13.272Z,98574.88
2019-02-19T14:18:15.531Z,98579.12
2019-02-19T14:25:14.600Z,98577.82
2019-02-19T14:31:53.287Z,98583.67
2019-02-19T14:42:30.640Z,98585.43
2019-02-19T14:49:09.600Z,98583.27
2019-02-19T14:55:52.802Z,98583.26
2019-02-19T15:02:11.135Z,98586.67
2019-02-19T15:09:06.465Z,98585.03
2019-02-19T15:12:02.188Z,98587.80
2019-02-19T15:18:54.480Z,98578.02
2019-02-19T15:25:53.281Z,98582.89
2019-02-19T15:32:47.739Z,98585.79
2019-02-19T15:39:31.675Z,98588.06
2019-02-19T15:45:37.354Z,98586.11
2019-02-19T15:52:16.300Z,98589.70
2019-02-19T15:58:54.969Z,98594.65
2019-02-19T16:05:38.012Z,98592.73
2019-02-19T16:12:25.983Z,98599.64
2019-02-19T16:19:35.249Z,98598.33
2019-02-19T16:26:16.258Z,98597.20
2019-02-19T16:32:50.408Z,98601.59
2019-02-19T16:39:47.533Z,98596.38
2019-02-19T16:46:40.621Z,98600.89
2019-02-19T16:53:23.220Z,98606.95
2019-02-19T16:56:33.499Z,98605.28
2019-02-19T17:03:32.657Z,98611.02
2019-02-19T17:10:15.633Z,98613.04
2019-02-19T17:17:02.667Z,98617.61
2019-02-19T17:23:45.569Z,98622.50
2019-02-19T17:30:38.758Z,98633.70
2019-02-19T17:41:17.834Z,98651.44
2019-02-19T17:48:20.961Z,98656.12
2019-02-19T17:55:05.264Z,98660.14
2019-02-19T18:01:54.029Z,98667.66
2019-02-19T18:08:42.355Z,98673.34
2019-02-19T18:15:36.118Z,98685.15
2019-02-19T18:22:15.404Z,98693.78
2019-02-19T18:28:42.977Z,98688.84
2019-02-19T18:34:36.465Z,98701.61
2019-02-19T18:41:02.572Z,98692.20
2019-02-19T18:47:28.160Z,98704.96
2019-02-19T18:53:57.236Z,98702.37
2019-02-19T19:00:26.821Z,98701.86
2019-02-19T19:07:06.047Z,98710.67
2019-02-19T19:13:33.889Z,98715.73
2019-02-19T19:20:02.409Z,98721.00
2019-02-19T19:26:28.555Z,98723.03
2019-02-19T19:32:56.149Z,98734.35
2019-02-19T19:39:25.248Z,98735.16
2019-02-19T19:49:13.877Z,98741.89
2019-02-19T19:55:40.903Z,98741.91
2019-02-19T20:02:08.441Z,98736.70
2019-02-19T20:08:34.573Z,98742.13
2019-02-19T20:15:15.547Z,98746.53
2019-02-19T20:21:44.398Z,98750.87
2019-02-19T20:28:11.911Z,98756.30
2019-02-19T20:34:13.613Z,98761.73
2019-02-19T20:40:37.395Z,98759.04
2019-02-19T20:50:53.445Z,98762.74
2019-02-19T20:57:19.298Z,98765.11
2019-02-19T21:03:45.144Z,98771.19
2019-02-19T21:10:28.344Z,98772.34
2019-02-19T21:16:53.157Z,98769.80
2019-02-19T21:23:20.995Z,98775.92
2019-02-19T21:29:59.943Z,98776.17
2019-02-19T21:35:59.319Z,98787.30
2019-02-19T21:42:24.331Z,98787.18
2019-02-19T21:52:28.030Z,98776.05
2019-02-19T21:58:57.145Z,98787.67
2019-02-19T22:05:39.879Z,98780.99
2019-02-19T22:12:07.780Z,98782.75
2019-02-19T22:18:34.805Z,98783.36
2019-02-19T22:25:15.444Z,98790.84
2019-02-19T22:31:43.345Z,98784.86
2019-02-19T22:38:09.437Z,98788.50
2019-02-19T22:44:39.966Z,98793.19
2019-02-19T22:54:31.023Z,98785.69
2019-02-19T23:01:32.101Z,98788.38
2019-02-19T23:07:58.144Z,98788.02
2019-02-19T23:14:23.797Z,98784.35
2019-02-19T23:20:56.865Z,98792.78
2019-02-19T23:27:35.806Z,98801.81
2019-02-19T23:33:32.333Z,98800.16
2019-02-19T23:39:58.155Z,98810.10
2019-02-19T23:46:23.626Z,98802.23
2019-02-19T23:55:58.310Z,98808.21
